Larry Tilley — WY2160 — position and weather

sailwx.info

Track history (hours):
 
Tides and Currents Weather Stations Pressure Air Temp Water Temp Dewpoint Dewpoint Depression Visibility Wind Speed Wind Dir Waves Ship Positions

Larry Tilley

Owner: SOUTHERN TOWING COMPANY LLC., MEMPHIS, TN. More information available from US FCC via Universal Licensing System and Coast Guard Vessel Documentation Center.

Last reported at 2015-Oct-30 08:10 UTC. Time now 2016-Apr-30 03:20 UTC.
Position N 41°29' W 090°38'.
Warning: this ship's position is months out of date.

Length 40 m; draft 8.6 m.

Type: Towing. MMSI: 366919230.

Date/timePositionNaut miles runAvg speedWind from/ knotsBaromVisibWave heightAir tempDewpointWater temp
2015-Oct-30 08:10N 41°29' W 090°38'3 5.5
2015-Oct-30 07:33N 41°31' W 090°34'1 0.8
2015-Oct-30 06:33N 41°31' W 090°33'1 1.3
2015-Oct-30 05:31N 41°31' W 090°31'0 0.0
2015-Oct-30 04:33N 41°31' W 090°31'0 0.0
2015-Oct-30 03:33N 41°31' W 090°31'0 0.0
2015-Oct-30 02:33N 41°31' W 090°31'0 0.0
2015-Oct-30 01:33N 41°31' W 090°31'0 0.0
2015-Oct-30 00:33N 41°31' W 090°31'0 0.0
2015-Oct-29 23:33N 41°31' W 090°31'0 0.0
2015-Oct-29 22:33N 41°31' W 090°31'0 0.0
2015-Oct-29 21:33N 41°31' W 090°31'0 0.0
2015-Oct-29 20:33N 41°31' W 090°31'0 0.0
2015-Oct-29 19:33N 41°31' W 090°31'0 0.0
2015-Oct-29 18:32N 41°31' W 090°31'0 0.0
2015-Oct-29 17:33N 41°31' W 090°31'0 0.0
2015-Oct-29 16:33N 41°31' W 090°31'0 0.0
2015-Oct-29 15:33N 41°31' W 090°31'0 0.0
2015-Oct-29 14:33N 41°31' W 090°31'0 0.0
2015-Oct-29 13:33N 41°31' W 090°31'0 0.0
2015-Oct-29 12:33N 41°31' W 090°31'0 0.0
2015-Oct-29 11:33N 41°31' W 090°31'0 0.0
2015-Oct-29 10:33N 41°31' W 090°31'0 0.0
2015-Oct-29 09:33N 41°31' W 090°31'0 0.0
2015-Oct-29 08:33N 41°31' W 090°31'0 0.0
2015-Oct-29 07:33N 41°31' W 090°31'0 0.0
2015-Oct-29 06:33N 41°31' W 090°31'0 0.0
2015-Oct-29 05:33N 41°31' W 090°31'0 0.0
2015-Oct-29 04:33N 41°31' W 090°31'0 0.0
2015-Oct-29 03:32N 41°31' W 090°31'0 0.0
2015-Oct-29 02:33N 41°31' W 090°31'0 0.0
2015-Oct-29 01:33N 41°31' W 090°31'0 0.0
2015-Oct-29 00:32N 41°31' W 090°31'0 0.0
2015-Oct-28 23:33N 41°31' W 090°31'0 0.0
2015-Oct-28 22:33N 41°31' W 090°31'0 0.0
2015-Oct-28 21:33N 41°31' W 090°31'0 0.0
2015-Oct-28 20:33N 41°31' W 090°31'0 0.0
2015-Oct-28 19:33N 41°31' W 090°31'0 0.0
2015-Oct-28 18:33N 41°31' W 090°31'0 0.0
2015-Oct-28 17:33N 41°31' W 090°31'0 0.0
2015-Oct-28 16:33N 41°31' W 090°31'0 0.0
2015-Oct-28 15:33N 41°31' W 090°31'0 0.0
2015-Oct-28 14:33N 41°31' W 090°31'0 0.0
2015-Oct-28 13:33N 41°31' W 090°31'0 0.0
2015-Oct-28 12:32N 41°31' W 090°31'0 0.0
2015-Oct-28 11:33N 41°31' W 090°31'0 0.0
2015-Oct-28 10:33N 41°31' W 090°31'0 0.0
2015-Oct-28 09:33N 41°31' W 090°31'0 0.0
2015-Oct-28 08:33N 41°31' W 090°31'0 0.0
2015-Oct-28 07:33N 41°31' W 090°31'0 0.0
2015-Oct-28 06:33N 41°31' W 090°31'0 0.0
2015-Oct-28 05:33N 41°31' W 090°31'0 0.0
2015-Oct-28 04:33N 41°31' W 090°31'0 0.0
2015-Oct-28 03:33N 41°31' W 090°31'0 0.0
2015-Oct-28 02:33N 41°31' W 090°31'0 0.0
2015-Oct-28 01:33N 41°31' W 090°31'0 0.0
2015-Oct-28 00:33N 41°31' W 090°31'0 0.0
2015-Oct-27 23:33N 41°31' W 090°31'0 0.0
2015-Oct-27 22:33N 41°31' W 090°31'0 0.0
2015-Oct-27 21:33N 41°31' W 090°31'0 0.0
2015-Oct-27 20:33N 41°31' W 090°31'0 0.0
2015-Oct-27 19:33N 41°31' W 090°31'0 0.0
2015-Oct-27 18:32N 41°31' W 090°31'0 0.0
2015-Oct-27 17:33N 41°31' W 090°31'0 0.0
2015-Oct-27 16:33N 41°31' W 090°31'0 0.0
2015-Oct-27 15:33N 41°31' W 090°31'0 0.0
2015-Oct-27 14:33N 41°31' W 090°31'0 0.0
2015-Oct-27 13:33N 41°31' W 090°31'0 0.0
2015-Oct-27 12:33N 41°31' W 090°31'0 0.0
2015-Oct-27 11:33N 41°31' W 090°31'0 0.0
2015-Oct-27 10:33N 41°31' W 090°31'0 0.0
2015-Oct-27 09:33N 41°31' W 090°31'0 0.1
2015-Oct-27 08:33N 41°31' W 090°31'0 0.1
2015-Oct-27 07:33N 41°31' W 090°31'  
2015-Oct-24 18:32N 41°31' W 090°31'1 0.6
2015-Oct-24 17:32N 41°31' W 090°31'0 0.5
2015-Oct-24 16:33N 41°31' W 090°32'2 1.5
2015-Oct-24 15:33N 41°31' W 090°34'2 2.2
2015-Oct-24 14:32N 41°30' W 090°36'0 0.0
2015-Oct-24 13:27N 41°30' W 090°36'0 0.0
2015-Oct-24 10:33N 41°30' W 090°36'0 0.1
2015-Oct-24 09:22N 41°30' W 090°36'  
Track history (hours):
 
Tides and Currents Weather Stations Pressure Air Temp Water Temp Dewpoint Dewpoint Depression Visibility Wind Speed Wind Dir Waves Ship Positions

Larry Tilley

Owner: SOUTHERN TOWING COMPANY LLC., MEMPHIS, TN. More information available from US FCC via Universal Licensing System and Coast Guard Vessel Documentation Center.

Last reported at 2015-Oct-30 08:10 UTC. Time now 2016-Apr-30 03:20 UTC.
Position N 41°29' W 090°38'.
Warning: this ship's position is months out of date.

Length 40 m; draft 8.6 m.

Type: Towing. MMSI: 366919230.

Date/timePositionNaut miles runAvg speedWind from/ knotsBaromVisibWave heightAir tempDewpointWater temp
2015-Oct-30 08:10N 41°29' W 090°38'3 5.5
2015-Oct-30 07:33N 41°31' W 090°34'1 0.8
2015-Oct-30 06:33N 41°31' W 090°33'1 1.3
2015-Oct-30 05:31N 41°31' W 090°31'0 0.0
2015-Oct-30 04:33N 41°31' W 090°31'0 0.0
2015-Oct-30 03:33N 41°31' W 090°31'0 0.0
2015-Oct-30 02:33N 41°31' W 090°31'0 0.0
2015-Oct-30 01:33N 41°31' W 090°31'0 0.0
2015-Oct-30 00:33N 41°31' W 090°31'0 0.0
2015-Oct-29 23:33N 41°31' W 090°31'0 0.0
2015-Oct-29 22:33N 41°31' W 090°31'0 0.0
2015-Oct-29 21:33N 41°31' W 090°31'0 0.0
2015-Oct-29 20:33N 41°31' W 090°31'0 0.0
2015-Oct-29 19:33N 41°31' W 090°31'0 0.0
2015-Oct-29 18:32N 41°31' W 090°31'0 0.0
2015-Oct-29 17:33N 41°31' W 090°31'0 0.0
2015-Oct-29 16:33N 41°31' W 090°31'0 0.0
2015-Oct-29 15:33N 41°31' W 090°31'0 0.0
2015-Oct-29 14:33N 41°31' W 090°31'0 0.0
2015-Oct-29 13:33N 41°31' W 090°31'0 0.0
2015-Oct-29 12:33N 41°31' W 090°31'0 0.0
2015-Oct-29 11:33N 41°31' W 090°31'0 0.0
2015-Oct-29 10:33N 41°31' W 090°31'0 0.0
2015-Oct-29 09:33N 41°31' W 090°31'0 0.0
2015-Oct-29 08:33N 41°31' W 090°31'0 0.0
2015-Oct-29 07:33N 41°31' W 090°31'0 0.0
2015-Oct-29 06:33N 41°31' W 090°31'0 0.0
2015-Oct-29 05:33N 41°31' W 090°31'0 0.0
2015-Oct-29 04:33N 41°31' W 090°31'0 0.0
2015-Oct-29 03:32N 41°31' W 090°31'0 0.0
2015-Oct-29 02:33N 41°31' W 090°31'0 0.0
2015-Oct-29 01:33N 41°31' W 090°31'0 0.0
2015-Oct-29 00:32N 41°31' W 090°31'0 0.0
2015-Oct-28 23:33N 41°31' W 090°31'0 0.0
2015-Oct-28 22:33N 41°31' W 090°31'0 0.0
2015-Oct-28 21:33N 41°31' W 090°31'0 0.0
2015-Oct-28 20:33N 41°31' W 090°31'0 0.0
2015-Oct-28 19:33N 41°31' W 090°31'0 0.0
2015-Oct-28 18:33N 41°31' W 090°31'0 0.0
2015-Oct-28 17:33N 41°31' W 090°31'0 0.0
2015-Oct-28 16:33N 41°31' W 090°31'0 0.0
2015-Oct-28 15:33N 41°31' W 090°31'0 0.0
2015-Oct-28 14:33N 41°31' W 090°31'0 0.0
2015-Oct-28 13:33N 41°31' W 090°31'0 0.0
2015-Oct-28 12:32N 41°31' W 090°31'0 0.0
2015-Oct-28 11:33N 41°31' W 090°31'0 0.0
2015-Oct-28 10:33N 41°31' W 090°31'0 0.0
2015-Oct-28 09:33N 41°31' W 090°31'0 0.0
2015-Oct-28 08:33N 41°31' W 090°31'0 0.0
2015-Oct-28 07:33N 41°31' W 090°31'0 0.0
2015-Oct-28 06:33N 41°31' W 090°31'0 0.0
2015-Oct-28 05:33N 41°31' W 090°31'0 0.0
2015-Oct-28 04:33N 41°31' W 090°31'0 0.0
2015-Oct-28 03:33N 41°31' W 090°31'0 0.0
2015-Oct-28 02:33N 41°31' W 090°31'0 0.0
2015-Oct-28 01:33N 41°31' W 090°31'0 0.0
2015-Oct-28 00:33N 41°31' W 090°31'0 0.0
2015-Oct-27 23:33N 41°31' W 090°31'0 0.0
2015-Oct-27 22:33N 41°31' W 090°31'0 0.0
2015-Oct-27 21:33N 41°31' W 090°31'0 0.0
2015-Oct-27 20:33N 41°31' W 090°31'0 0.0
2015-Oct-27 19:33N 41°31' W 090°31'0 0.0
2015-Oct-27 18:32N 41°31' W 090°31'0 0.0
2015-Oct-27 17:33N 41°31' W 090°31'0 0.0
2015-Oct-27 16:33N 41°31' W 090°31'0 0.0
2015-Oct-27 15:33N 41°31' W 090°31'0 0.0
2015-Oct-27 14:33N 41°31' W 090°31'0 0.0
2015-Oct-27 13:33N 41°31' W 090°31'0 0.0
2015-Oct-27 12:33N 41°31' W 090°31'0 0.0
2015-Oct-27 11:33N 41°31' W 090°31'0 0.0
2015-Oct-27 10:33N 41°31' W 090°31'0 0.0
2015-Oct-27 09:33N 41°31' W 090°31'0 0.1
2015-Oct-27 08:33N 41°31' W 090°31'0 0.1
2015-Oct-27 07:33N 41°31' W 090°31'  
2015-Oct-24 18:32N 41°31' W 090°31'1 0.6
2015-Oct-24 17:32N 41°31' W 090°31'0 0.5
2015-Oct-24 16:33N 41°31' W 090°32'2 1.5
2015-Oct-24 15:33N 41°31' W 090°34'2 2.2
2015-Oct-24 14:32N 41°30' W 090°36'0 0.0
2015-Oct-24 13:27N 41°30' W 090°36'0 0.0
2015-Oct-24 10:33N 41°30' W 090°36'0 0.1
2015-Oct-24 09:22N 41°30' W 090°36'  

Dump ship's entire track history